sensor_id;sensor_type;location;lat;lon;timestamp;P1;durP1;ratioP1;P2;durP2;ratioP2
56122;SDS011;42426;46.104;19.656;2022-08-03T00:01:39;19.60;;;8.70;;
56122;SDS011;42426;46.104;19.656;2022-08-03T00:04:06;13.23;;;8.77;;
56122;SDS011;42426;46.104;19.656;2022-08-03T00:06:33;11.23;;;8.23;;
56122;SDS011;42426;46.104;19.656;2022-08-03T00:08:59;14.50;;;8.25;;
56122;SDS011;42426;46.104;19.656;2022-08-03T00:11:25;12.05;;;7.28;;
56122;SDS011;42426;46.104;19.656;2022-08-03T00:13:51;10.77;;;7.65;;
56122;SDS011;42426;46.104;19.656;2022-08-03T00:16:17;15.10;;;7.82;;
56122;SDS011;42426;46.104;19.656;2022-08-03T00:18:43;9.00;;;7.55;;
56122;SDS011;42426;46.104;19.656;2022-08-03T00:21:09;12.30;;;7.28;;
56122;SDS011;42426;46.104;19.656;2022-08-03T00:23:35;12.68;;;7.45;;
56122;SDS011;42426;46.104;19.656;2022-08-03T00:26:01;12.68;;;6.80;;
56122;SDS011;42426;46.104;19.656;2022-08-03T00:28:27;9.05;;;6.68;;
56122;SDS011;42426;46.104;19.656;2022-08-03T00:30:53;11.18;;;6.95;;
56122;SDS011;42426;46.104;19.656;2022-08-03T00:33:20;9.40;;;7.57;;
56122;SDS011;42426;46.104;19.656;2022-08-03T00:35:46;12.25;;;7.07;;
56122;SDS011;42426;46.104;19.656;2022-08-03T00:38:12;7.20;;;6.47;;
56122;SDS011;42426;46.104;19.656;2022-08-03T00:40:38;10.77;;;7.18;;
56122;SDS011;42426;46.104;19.656;2022-08-03T00:43:04;7.32;;;6.63;;
56122;SDS011;42426;46.104;19.656;2022-08-03T00:45:32;11.93;;;6.65;;
56122;SDS011;42426;46.104;19.656;2022-08-03T00:48:00;8.27;;;6.55;;
56122;SDS011;42426;46.104;19.656;2022-08-03T00:50:28;11.40;;;6.93;;
56122;SDS011;42426;46.104;19.656;2022-08-03T00:55:35;7.63;;;6.50;;
56122;SDS011;42426;46.104;19.656;2022-08-03T00:58:02;10.00;;;7.65;;
56122;SDS011;42426;46.104;19.656;2022-08-03T01:00:31;9.80;;;6.82;;
56122;SDS011;42426;46.104;19.656;2022-08-03T01:02:59;7.88;;;6.63;;
56122;SDS011;42426;46.104;19.656;2022-08-03T01:05:27;11.55;;;6.68;;
56122;SDS011;42426;46.104;19.656;2022-08-03T01:08:15;8.85;;;6.75;;
56122;SDS011;42426;46.104;19.656;2022-08-03T01:10:59;7.65;;;6.88;;
56122;SDS011;42426;46.104;19.656;2022-08-03T01:13:52;12.38;;;6.95;;
56122;SDS011;42426;46.104;19.656;2022-08-03T01:16:31;15.02;;;7.15;;
56122;SDS011;42426;46.104;19.656;2022-08-03T01:30:15;9.15;;;7.50;;
56122;SDS011;42426;46.104;19.656;2022-08-03T01:32:45;10.00;;;7.47;;
56122;SDS011;42426;46.104;19.656;2022-08-03T01:35:29;8.07;;;7.18;;
56122;SDS011;42426;46.104;19.656;2022-08-03T01:38:10;8.98;;;7.20;;
56122;SDS011;42426;46.104;19.656;2022-08-03T01:40:39;7.82;;;7.13;;
56122;SDS011;42426;46.104;19.656;2022-08-03T01:43:08;11.25;;;7.20;;
56122;SDS011;42426;46.104;19.656;2022-08-03T01:45:39;8.77;;;7.88;;
56122;SDS011;42426;46.104;19.656;2022-08-03T01:48:07;8.45;;;7.65;;
56122;SDS011;42426;46.104;19.656;2022-08-03T01:50:35;7.90;;;7.10;;
56122;SDS011;42426;46.104;19.656;2022-08-03T01:53:01;10.10;;;7.65;;
56122;SDS011;42426;46.104;19.656;2022-08-03T01:55:28;8.88;;;7.20;;
56122;SDS011;42426;46.104;19.656;2022-08-03T01:57:57;13.27;;;6.85;;
56122;SDS011;42426;46.104;19.656;2022-08-03T02:00:26;10.18;;;7.88;;
56122;SDS011;42426;46.104;19.656;2022-08-03T02:02:53;8.52;;;7.65;;
56122;SDS011;42426;46.104;19.656;2022-08-03T02:05:20;8.57;;;7.72;;
56122;SDS011;42426;46.104;19.656;2022-08-03T02:10:28;9.32;;;7.78;;
56122;SDS011;42426;46.104;19.656;2022-08-03T02:12:56;8.63;;;7.72;;
56122;SDS011;42426;46.104;19.656;2022-08-03T02:18:10;8.95;;;7.22;;
56122;SDS011;42426;46.104;19.656;2022-08-03T02:20:37;8.48;;;7.65;;
56122;SDS011;42426;46.104;19.656;2022-08-03T02:23:05;9.07;;;8.07;;
56122;SDS011;42426;46.104;19.656;2022-08-03T02:25:32;9.88;;;8.13;;
56122;SDS011;42426;46.104;19.656;2022-08-03T02:28:07;10.75;;;8.80;;
56122;SDS011;42426;46.104;19.656;2022-08-03T02:33:03;7.18;;;6.47;;
56122;SDS011;42426;46.104;19.656;2022-08-03T02:35:34;9.20;;;7.28;;
56122;SDS011;42426;46.104;19.656;2022-08-03T02:38:03;8.88;;;7.95;;
56122;SDS011;42426;46.104;19.656;2022-08-03T02:40:31;8.73;;;7.75;;
56122;SDS011;42426;46.104;19.656;2022-08-03T02:42:58;8.85;;;8.00;;
56122;SDS011;42426;46.104;19.656;2022-08-03T02:45:28;8.52;;;7.47;;
56122;SDS011;42426;46.104;19.656;2022-08-03T02:47:56;9.38;;;8.40;;
56122;SDS011;42426;46.104;19.656;2022-08-03T02:50:27;14.18;;;9.43;;
56122;SDS011;42426;46.104;19.656;2022-08-03T02:52:54;10.60;;;9.30;;
56122;SDS011;42426;46.104;19.656;2022-08-03T02:55:22;9.68;;;8.70;;
56122;SDS011;42426;46.104;19.656;2022-08-03T02:57:51;9.40;;;8.50;;
56122;SDS011;42426;46.104;19.656;2022-08-03T03:00:18;9.35;;;8.27;;
56122;SDS011;42426;46.104;19.656;2022-08-03T03:02:44;12.07;;;8.65;;
56122;SDS011;42426;46.104;19.656;2022-08-03T03:05:11;10.65;;;8.55;;
56122;SDS011;42426;46.104;19.656;2022-08-03T03:07:38;9.18;;;8.27;;
56122;SDS011;42426;46.104;19.656;2022-08-03T03:10:06;11.13;;;6.63;;
56122;SDS011;42426;46.104;19.656;2022-08-03T03:12:35;10.55;;;9.55;;
56122;SDS011;42426;46.104;19.656;2022-08-03T03:15:04;8.15;;;7.35;;
56122;SDS011;42426;46.104;19.656;2022-08-03T03:17:30;12.63;;;9.32;;
56122;SDS011;42426;46.104;19.656;2022-08-03T03:19:57;10.10;;;8.85;;
56122;SDS011;42426;46.104;19.656;2022-08-03T03:22:24;10.32;;;9.25;;
56122;SDS011;42426;46.104;19.656;2022-08-03T03:24:51;10.20;;;7.40;;
56122;SDS011;42426;46.104;19.656;2022-08-03T03:27:18;10.70;;;8.85;;
56122;SDS011;42426;46.104;19.656;2022-08-03T03:29:45;11.35;;;9.45;;
56122;SDS011;42426;46.104;19.656;2022-08-03T03:32:12;10.32;;;9.27;;
56122;SDS011;42426;46.104;19.656;2022-08-03T03:34:39;10.20;;;9.30;;
56122;SDS011;42426;46.104;19.656;2022-08-03T03:37:06;12.02;;;10.85;;
56122;SDS011;42426;46.104;19.656;2022-08-03T03:39:32;11.05;;;9.63;;
56122;SDS011;42426;46.104;19.656;2022-08-03T03:42:00;12.80;;;10.05;;
56122;SDS011;42426;46.104;19.656;2022-08-03T03:44:27;11.73;;;10.13;;
56122;SDS011;42426;46.104;19.656;2022-08-03T03:46:56;12.15;;;10.95;;
56122;SDS011;42426;46.104;19.656;2022-08-03T03:49:22;10.27;;;9.27;;
56122;SDS011;42426;46.104;19.656;2022-08-03T03:51:51;13.50;;;10.77;;
56122;SDS011;42426;46.104;19.656;2022-08-03T03:54:18;11.40;;;10.30;;
56122;SDS011;42426;46.104;19.656;2022-08-03T03:56:45;11.95;;;10.75;;
56122;SDS011;42426;46.104;19.656;2022-08-03T03:59:11;12.00;;;10.48;;
56122;SDS011;42426;46.104;19.656;2022-08-03T04:01:37;15.32;;;11.20;;
56122;SDS011;42426;46.104;19.656;2022-08-03T04:04:03;11.20;;;10.18;;
56122;SDS011;42426;46.104;19.656;2022-08-03T04:06:48;11.90;;;10.65;;
56122;SDS011;42426;46.104;19.656;2022-08-03T04:09:34;11.77;;;10.57;;
56122;SDS011;42426;46.104;19.656;2022-08-03T04:12:21;12.13;;;10.52;;
56122;SDS011;42426;46.104;19.656;2022-08-03T04:14:48;13.85;;;10.77;;
56122;SDS011;42426;46.104;19.656;2022-08-03T04:17:16;16.25;;;10.90;;
56122;SDS011;42426;46.104;19.656;2022-08-03T04:19:45;14.27;;;11.30;;
56122;SDS011;42426;46.104;19.656;2022-08-03T04:22:17;15.23;;;10.82;;
56122;SDS011;42426;46.104;19.656;2022-08-03T04:24:45;12.30;;;10.98;;
56122;SDS011;42426;46.104;19.656;2022-08-03T04:27:15;15.25;;;11.65;;
56122;SDS011;42426;46.104;19.656;2022-08-03T04:29:46;14.18;;;11.82;;
56122;SDS011;42426;46.104;19.656;2022-08-03T04:32:15;13.32;;;11.93;;
56122;SDS011;42426;46.104;19.656;2022-08-03T04:34:42;13.50;;;12.20;;
56122;SDS011;42426;46.104;19.656;2022-08-03T04:37:10;12.68;;;11.38;;
56122;SDS011;42426;46.104;19.656;2022-08-03T04:39:39;13.38;;;11.70;;
56122;SDS011;42426;46.104;19.656;2022-08-03T04:42:07;13.60;;;12.18;;
56122;SDS011;42426;46.104;19.656;2022-08-03T04:44:36;14.98;;;11.98;;
56122;SDS011;42426;46.104;19.656;2022-08-03T04:47:04;13.90;;;12.23;;
56122;SDS011;42426;46.104;19.656;2022-08-03T04:49:31;12.85;;;11.55;;
56122;SDS011;42426;46.104;19.656;2022-08-03T04:51:57;13.57;;;12.05;;
56122;SDS011;42426;46.104;19.656;2022-08-03T04:54:23;14.32;;;12.00;;
56122;SDS011;42426;46.104;19.656;2022-08-03T04:56:48;18.13;;;12.68;;
56122;SDS011;42426;46.104;19.656;2022-08-03T04:59:14;20.13;;;12.43;;
56122;SDS011;42426;46.104;19.656;2022-08-03T05:01:42;13.63;;;11.55;;
56122;SDS011;42426;46.104;19.656;2022-08-03T05:04:07;13.48;;;12.00;;
56122;SDS011;42426;46.104;19.656;2022-08-03T05:06:37;17.25;;;11.68;;
56122;SDS011;42426;46.104;19.656;2022-08-03T05:09:03;17.85;;;11.65;;
56122;SDS011;42426;46.104;19.656;2022-08-03T05:11:29;15.27;;;12.15;;
56122;SDS011;42426;46.104;19.656;2022-08-03T05:13:54;16.70;;;12.50;;
56122;SDS011;42426;46.104;19.656;2022-08-03T05:16:20;17.77;;;13.50;;
56122;SDS011;42426;46.104;19.656;2022-08-03T05:18:46;17.38;;;13.43;;
56122;SDS011;42426;46.104;19.656;2022-08-03T05:21:12;17.73;;;12.45;;
56122;SDS011;42426;46.104;19.656;2022-08-03T05:23:41;13.05;;;10.95;;
56122;SDS011;42426;46.104;19.656;2022-08-03T05:26:08;11.98;;;10.77;;
56122;SDS011;42426;46.104;19.656;2022-08-03T05:28:35;14.13;;;12.00;;
56122;SDS011;42426;46.104;19.656;2022-08-03T05:31:02;14.13;;;11.45;;
56122;SDS011;42426;46.104;19.656;2022-08-03T05:33:27;12.07;;;10.93;;
56122;SDS011;42426;46.104;19.656;2022-08-03T05:35:53;12.95;;;10.02;;
56122;SDS011;42426;46.104;19.656;2022-08-03T05:38:19;12.35;;;9.55;;
56122;SDS011;42426;46.104;19.656;2022-08-03T05:40:45;20.50;;;11.85;;
56122;SDS011;42426;46.104;19.656;2022-08-03T05:43:11;15.30;;;11.70;;
56122;SDS011;42426;46.104;19.656;2022-08-03T05:45:36;12.52;;;10.90;;
56122;SDS011;42426;46.104;19.656;2022-08-03T05:48:03;14.18;;;9.40;;
56122;SDS011;42426;46.104;19.656;2022-08-03T05:50:29;12.15;;;10.00;;
56122;SDS011;42426;46.104;19.656;2022-08-03T05:52:56;12.77;;;10.77;;
56122;SDS011;42426;46.104;19.656;2022-08-03T05:55:22;10.80;;;9.15;;
56122;SDS011;42426;46.104;19.656;2022-08-03T05:57:48;13.25;;;11.93;;
56122;SDS011;42426;46.104;19.656;2022-08-03T06:00:14;12.40;;;10.50;;
56122;SDS011;42426;46.104;19.656;2022-08-03T06:02:40;18.98;;;9.85;;
56122;SDS011;42426;46.104;19.656;2022-08-03T06:05:07;12.40;;;9.85;;
56122;SDS011;42426;46.104;19.656;2022-08-03T06:07:33;16.92;;;11.73;;
56122;SDS011;42426;46.104;19.656;2022-08-03T06:09:59;12.15;;;10.85;;
56122;SDS011;42426;46.104;19.656;2022-08-03T06:12:27;11.52;;;9.65;;
56122;SDS011;42426;46.104;19.656;2022-08-03T06:14:53;12.20;;;10.65;;
56122;SDS011;42426;46.104;19.656;2022-08-03T06:17:19;20.92;;;10.95;;
56122;SDS011;42426;46.104;19.656;2022-08-03T06:19:45;13.25;;;11.07;;
56122;SDS011;42426;46.104;19.656;2022-08-03T06:22:11;14.65;;;10.02;;
56122;SDS011;42426;46.104;19.656;2022-08-03T06:24:36;14.73;;;11.60;;
56122;SDS011;42426;46.104;19.656;2022-08-03T06:27:03;45.55;;;13.10;;
56122;SDS011;42426;46.104;19.656;2022-08-03T06:29:29;23.52;;;11.65;;
56122;SDS011;42426;46.104;19.656;2022-08-03T06:31:55;13.27;;;11.88;;
56122;SDS011;42426;46.104;19.656;2022-08-03T06:34:20;14.98;;;11.40;;
56122;SDS011;42426;46.104;19.656;2022-08-03T06:36:46;14.45;;;11.88;;
56122;SDS011;42426;46.104;19.656;2022-08-03T06:39:14;10.82;;;9.63;;
56122;SDS011;42426;46.104;19.656;2022-08-03T06:41:41;10.80;;;9.75;;
56122;SDS011;42426;46.104;19.656;2022-08-03T06:44:07;12.07;;;9.82;;
56122;SDS011;42426;46.104;19.656;2022-08-03T06:46:33;15.15;;;10.40;;
56122;SDS011;42426;46.104;19.656;2022-08-03T06:48:59;18.58;;;11.90;;
56122;SDS011;42426;46.104;19.656;2022-08-03T06:51:25;14.50;;;10.27;;
56122;SDS011;42426;46.104;19.656;2022-08-03T06:53:51;14.73;;;12.50;;
56122;SDS011;42426;46.104;19.656;2022-08-03T06:56:17;9.90;;;8.98;;
56122;SDS011;42426;46.104;19.656;2022-08-03T06:58:44;14.70;;;12.13;;
56122;SDS011;42426;46.104;19.656;2022-08-03T07:01:11;12.93;;;11.00;;
56122;SDS011;42426;46.104;19.656;2022-08-03T07:03:38;14.75;;;10.50;;
56122;SDS011;42426;46.104;19.656;2022-08-03T07:06:05;13.07;;;11.23;;
56122;SDS011;42426;46.104;19.656;2022-08-03T07:08:31;12.65;;;11.30;;
56122;SDS011;42426;46.104;19.656;2022-08-03T07:10:57;13.05;;;11.27;;
56122;SDS011;42426;46.104;19.656;2022-08-03T07:13:23;14.98;;;11.73;;
56122;SDS011;42426;46.104;19.656;2022-08-03T07:15:49;17.52;;;11.38;;
56122;SDS011;42426;46.104;19.656;2022-08-03T07:18:15;13.05;;;11.73;;
56122;SDS011;42426;46.104;19.656;2022-08-03T07:20:40;12.32;;;11.02;;
56122;SDS011;42426;46.104;19.656;2022-08-03T07:23:06;12.13;;;10.93;;
56122;SDS011;42426;46.104;19.656;2022-08-03T07:25:33;12.15;;;10.38;;
56122;SDS011;42426;46.104;19.656;2022-08-03T07:27:59;11.82;;;10.02;;
56122;SDS011;42426;46.104;19.656;2022-08-03T07:30:25;11.63;;;10.50;;
56122;SDS011;42426;46.104;19.656;2022-08-03T07:32:52;10.90;;;9.85;;
56122;SDS011;42426;46.104;19.656;2022-08-03T07:35:18;10.38;;;9.38;;
56122;SDS011;42426;46.104;19.656;2022-08-03T07:37:44;13.60;;;9.95;;
56122;SDS011;42426;46.104;19.656;2022-08-03T07:40:10;10.63;;;9.57;;
56122;SDS011;42426;46.104;19.656;2022-08-03T07:42:36;11.65;;;9.43;;
56122;SDS011;42426;46.104;19.656;2022-08-03T07:45:02;10.90;;;9.88;;
56122;SDS011;42426;46.104;19.656;2022-08-03T07:47:29;11.02;;;9.77;;
56122;SDS011;42426;46.104;19.656;2022-08-03T07:49:55;16.58;;;10.25;;
56122;SDS011;42426;46.104;19.656;2022-08-03T07:52:22;9.35;;;8.55;;
56122;SDS011;42426;46.104;19.656;2022-08-03T07:55:06;11.60;;;8.75;;
56122;SDS011;42426;46.104;19.656;2022-08-03T07:57:35;11.75;;;9.07;;
56122;SDS011;42426;46.104;19.656;2022-08-03T08:00:02;10.95;;;9.43;;
56122;SDS011;42426;46.104;19.656;2022-08-03T08:02:31;12.05;;;10.02;;
56122;SDS011;42426;46.104;19.656;2022-08-03T08:04:57;16.98;;;9.88;;
56122;SDS011;42426;46.104;19.656;2022-08-03T08:07:23;13.82;;;9.02;;
56122;SDS011;42426;46.104;19.656;2022-08-03T08:09:50;11.50;;;9.45;;
56122;SDS011;42426;46.104;19.656;2022-08-03T08:12:16;9.45;;;8.55;;
56122;SDS011;42426;46.104;19.656;2022-08-03T08:14:42;10.13;;;8.95;;
56122;SDS011;42426;46.104;19.656;2022-08-03T08:17:12;9.55;;;8.65;;
56122;SDS011;42426;46.104;19.656;2022-08-03T08:19:38;9.55;;;8.65;;
56122;SDS011;42426;46.104;19.656;2022-08-03T08:22:04;11.20;;;9.15;;
56122;SDS011;42426;46.104;19.656;2022-08-03T08:24:31;10.38;;;9.00;;
56122;SDS011;42426;46.104;19.656;2022-08-03T08:26:58;14.23;;;9.50;;
56122;SDS011;42426;46.104;19.656;2022-08-03T08:29:25;10.68;;;9.43;;
56122;SDS011;42426;46.104;19.656;2022-08-03T08:31:51;9.68;;;8.75;;
56122;SDS011;42426;46.104;19.656;2022-08-03T08:34:19;11.73;;;8.65;;
56122;SDS011;42426;46.104;19.656;2022-08-03T08:36:45;10.27;;;8.77;;
56122;SDS011;42426;46.104;19.656;2022-08-03T08:39:11;9.27;;;8.38;;
56122;SDS011;42426;46.104;19.656;2022-08-03T08:41:37;9.70;;;8.55;;
56122;SDS011;42426;46.104;19.656;2022-08-03T08:44:03;10.05;;;8.10;;
56122;SDS011;42426;46.104;19.656;2022-08-03T08:46:33;9.27;;;8.38;;
56122;SDS011;42426;46.104;19.656;2022-08-03T08:48:59;10.70;;;8.50;;
56122;SDS011;42426;46.104;19.656;2022-08-03T08:51:33;10.02;;;7.93;;
56122;SDS011;42426;46.104;19.656;2022-08-03T08:54:02;9.75;;;8.85;;
56122;SDS011;42426;46.104;19.656;2022-08-03T08:56:31;8.40;;;7.70;;
56122;SDS011;42426;46.104;19.656;2022-08-03T08:58:58;9.10;;;7.82;;
56122;SDS011;42426;46.104;19.656;2022-08-03T09:01:24;9.65;;;7.65;;
56122;SDS011;42426;46.104;19.656;2022-08-03T09:03:51;9.27;;;7.57;;
56122;SDS011;42426;46.104;19.656;2022-08-03T09:06:18;14.70;;;7.72;;
56122;SDS011;42426;46.104;19.656;2022-08-03T09:08:45;14.70;;;8.52;;
56122;SDS011;42426;46.104;19.656;2022-08-03T09:11:10;10.23;;;7.38;;
56122;SDS011;42426;46.104;19.656;2022-08-03T09:13:36;8.48;;;7.68;;
56122;SDS011;42426;46.104;19.656;2022-08-03T09:16:13;11.35;;;8.13;;
56122;SDS011;42426;46.104;19.656;2022-08-03T09:18:45;9.40;;;7.93;;
56122;SDS011;42426;46.104;19.656;2022-08-03T09:21:20;9.18;;;8.35;;
56122;SDS011;42426;46.104;19.656;2022-08-03T09:23:48;8.60;;;7.80;;
56122;SDS011;42426;46.104;19.656;2022-08-03T09:26:22;9.55;;;8.15;;
56122;SDS011;42426;46.104;19.656;2022-08-03T09:28:56;11.27;;;7.60;;
56122;SDS011;42426;46.104;19.656;2022-08-03T09:31:35;8.45;;;7.63;;
56122;SDS011;42426;46.104;19.656;2022-08-03T09:34:10;7.95;;;7.18;;
56122;SDS011;42426;46.104;19.656;2022-08-03T09:36:47;8.20;;;7.47;;
56122;SDS011;42426;46.104;19.656;2022-08-03T09:39:34;9.45;;;7.10;;
56122;SDS011;42426;46.104;19.656;2022-08-03T09:42:09;8.95;;;7.25;;
56122;SDS011;42426;46.104;19.656;2022-08-03T09:44:40;7.63;;;6.90;;
56122;SDS011;42426;46.104;19.656;2022-08-03T09:47:08;8.45;;;6.70;;
56122;SDS011;42426;46.104;19.656;2022-08-03T09:49:35;8.38;;;7.07;;
56122;SDS011;42426;46.104;19.656;2022-08-03T09:52:10;9.40;;;7.32;;
56122;SDS011;42426;46.104;19.656;2022-08-03T09:54:38;8.20;;;7.07;;
56122;SDS011;42426;46.104;19.656;2022-08-03T09:57:05;10.18;;;7.15;;
56122;SDS011;42426;46.104;19.656;2022-08-03T09:59:31;8.18;;;6.80;;
56122;SDS011;42426;46.104;19.656;2022-08-03T10:01:58;8.15;;;7.38;;
56122;SDS011;42426;46.104;19.656;2022-08-03T10:04:24;9.68;;;6.93;;
56122;SDS011;42426;46.104;19.656;2022-08-03T10:07:04;8.73;;;6.85;;
56122;SDS011;42426;46.104;19.656;2022-08-03T10:09:31;7.90;;;7.15;;
56122;SDS011;42426;46.104;19.656;2022-08-03T10:12:06;9.65;;;6.35;;
56122;SDS011;42426;46.104;19.656;2022-08-03T10:14:37;8.43;;;6.70;;
56122;SDS011;42426;46.104;19.656;2022-08-03T10:17:03;7.65;;;6.95;;
56122;SDS011;42426;46.104;19.656;2022-08-03T10:19:29;7.22;;;6.63;;
56122;SDS011;42426;46.104;19.656;2022-08-03T10:21:56;7.93;;;7.13;;
56122;SDS011;42426;46.104;19.656;2022-08-03T10:24:28;10.07;;;6.05;;
56122;SDS011;42426;46.104;19.656;2022-08-03T10:27:07;6.93;;;6.22;;
56122;SDS011;42426;46.104;19.656;2022-08-03T10:29:46;10.63;;;6.28;;
56122;SDS011;42426;46.104;19.656;2022-08-03T10:32:28;6.97;;;5.70;;
56122;SDS011;42426;46.104;19.656;2022-08-03T10:35:14;7.28;;;5.55;;
56122;SDS011;42426;46.104;19.656;2022-08-03T10:37:43;6.22;;;5.63;;
56122;SDS011;42426;46.104;19.656;2022-08-03T10:40:14;7.18;;;6.50;;
56122;SDS011;42426;46.104;19.656;2022-08-03T10:42:44;6.47;;;5.47;;
56122;SDS011;42426;46.104;19.656;2022-08-03T10:45:17;9.00;;;5.43;;
56122;SDS011;42426;46.104;19.656;2022-08-03T10:47:47;7.15;;;5.35;;
56122;SDS011;42426;46.104;19.656;2022-08-03T10:50:14;6.38;;;5.82;;
56122;SDS011;42426;46.104;19.656;2022-08-03T10:53:03;6.20;;;5.60;;
56122;SDS011;42426;46.104;19.656;2022-08-03T10:55:34;5.78;;;4.72;;
56122;SDS011;42426;46.104;19.656;2022-08-03T11:01:00;6.63;;;6.03;;
56122;SDS011;42426;46.104;19.656;2022-08-03T11:03:27;7.35;;;6.60;;
56122;SDS011;42426;46.104;19.656;2022-08-03T11:05:55;6.90;;;5.65;;
56122;SDS011;42426;46.104;19.656;2022-08-03T11:08:43;6.45;;;5.50;;
56122;SDS011;42426;46.104;19.656;2022-08-03T11:16:44;5.97;;;5.30;;
56122;SDS011;42426;46.104;19.656;2022-08-03T11:19:17;6.00;;;5.40;;
56122;SDS011;42426;46.104;19.656;2022-08-03T11:35:08;7.72;;;5.53;;
56122;SDS011;42426;46.104;19.656;2022-08-03T11:37:36;6.05;;;5.55;;
56122;SDS011;42426;46.104;19.656;2022-08-03T11:45:58;5.82;;;5.25;;
56122;SDS011;42426;46.104;19.656;2022-08-03T11:49:01;6.55;;;5.85;;
56122;SDS011;42426;46.104;19.656;2022-08-03T11:51:29;6.00;;;5.40;;
56122;SDS011;42426;46.104;19.656;2022-08-03T11:54:02;5.60;;;5.03;;
56122;SDS011;42426;46.104;19.656;2022-08-03T11:56:50;6.57;;;5.53;;
56122;SDS011;42426;46.104;19.656;2022-08-03T11:59:15;5.65;;;5.15;;
56122;SDS011;42426;46.104;19.656;2022-08-03T12:01:42;6.43;;;5.68;;
56122;SDS011;42426;46.104;19.656;2022-08-03T12:04:09;6.43;;;4.72;;
56122;SDS011;42426;46.104;19.656;2022-08-03T12:06:35;21.23;;;6.60;;
56122;SDS011;42426;46.104;19.656;2022-08-03T12:09:19;10.20;;;5.78;;
56122;SDS011;42426;46.104;19.656;2022-08-03T12:11:49;11.30;;;5.45;;
56122;SDS011;42426;46.104;19.656;2022-08-03T12:14:16;10.13;;;5.63;;
56122;SDS011;42426;46.104;19.656;2022-08-03T12:16:46;5.90;;;5.30;;
56122;SDS011;42426;46.104;19.656;2022-08-03T12:19:12;5.85;;;5.32;;
56122;SDS011;42426;46.104;19.656;2022-08-03T12:21:48;6.03;;;5.07;;
56122;SDS011;42426;46.104;19.656;2022-08-03T12:24:15;5.60;;;5.10;;
56122;SDS011;42426;46.104;19.656;2022-08-03T12:26:42;5.90;;;4.78;;
56122;SDS011;42426;46.104;19.656;2022-08-03T12:29:19;5.65;;;5.15;;
56122;SDS011;42426;46.104;19.656;2022-08-03T12:31:46;11.38;;;4.78;;
56122;SDS011;42426;46.104;19.656;2022-08-03T12:34:13;5.53;;;5.10;;
56122;SDS011;42426;46.104;19.656;2022-08-03T12:36:49;6.55;;;5.43;;
56122;SDS011;42426;46.104;19.656;2022-08-03T12:39:16;8.27;;;5.07;;
56122;SDS011;42426;46.104;19.656;2022-08-03T12:41:51;5.18;;;4.78;;
56122;SDS011;42426;46.104;19.656;2022-08-03T12:44:27;5.13;;;4.50;;
56122;SDS011;42426;46.104;19.656;2022-08-03T12:46:56;6.80;;;4.93;;
56122;SDS011;42426;46.104;19.656;2022-08-03T12:49:23;4.72;;;4.32;;
56122;SDS011;42426;46.104;19.656;2022-08-03T12:54:15;5.68;;;4.80;;
56122;SDS011;42426;46.104;19.656;2022-08-03T12:59:32;5.85;;;4.90;;
56122;SDS011;42426;46.104;19.656;2022-08-03T13:01:58;5.28;;;4.75;;
56122;SDS011;42426;46.104;19.656;2022-08-03T13:04:28;5.78;;;4.80;;
56122;SDS011;42426;46.104;19.656;2022-08-03T13:07:00;4.97;;;4.53;;
56122;SDS011;42426;46.104;19.656;2022-08-03T13:09:28;5.43;;;4.47;;
56122;SDS011;42426;46.104;19.656;2022-08-03T13:12:06;6.15;;;4.75;;
56122;SDS011;42426;46.104;19.656;2022-08-03T13:14:33;7.18;;;6.10;;
56122;SDS011;42426;46.104;19.656;2022-08-03T13:16:59;7.18;;;5.47;;
56122;SDS011;42426;46.104;19.656;2022-08-03T13:19:25;4.90;;;4.40;;
56122;SDS011;42426;46.104;19.656;2022-08-03T13:21:51;5.07;;;4.60;;
56122;SDS011;42426;46.104;19.656;2022-08-03T13:24:16;7.20;;;4.82;;
56122;SDS011;42426;46.104;19.656;2022-08-03T13:26:43;5.25;;;4.85;;
56122;SDS011;42426;46.104;19.656;2022-08-03T13:29:09;6.85;;;5.47;;
56122;SDS011;42426;46.104;19.656;2022-08-03T13:31:35;5.88;;;4.93;;
56122;SDS011;42426;46.104;19.656;2022-08-03T13:34:01;10.90;;;5.05;;
56122;SDS011;42426;46.104;19.656;2022-08-03T13:36:26;5.18;;;4.75;;
56122;SDS011;42426;46.104;19.656;2022-08-03T13:38:52;6.18;;;5.18;;
56122;SDS011;42426;46.104;19.656;2022-08-03T13:41:18;5.55;;;4.80;;
56122;SDS011;42426;46.104;19.656;2022-08-03T13:43:43;7.30;;;5.10;;
56122;SDS011;42426;46.104;19.656;2022-08-03T13:46:09;8.57;;;5.45;;
56122;SDS011;42426;46.104;19.656;2022-08-03T13:48:35;5.10;;;4.65;;
56122;SDS011;42426;46.104;19.656;2022-08-03T13:51:01;8.88;;;5.03;;
56122;SDS011;42426;46.104;19.656;2022-08-03T13:53:27;5.70;;;5.15;;
56122;SDS011;42426;46.104;19.656;2022-08-03T13:55:52;5.65;;;5.05;;
56122;SDS011;42426;46.104;19.656;2022-08-03T13:58:18;5.30;;;4.90;;
56122;SDS011;42426;46.104;19.656;2022-08-03T14:00:44;5.97;;;4.60;;
56122;SDS011;42426;46.104;19.656;2022-08-03T14:03:10;9.85;;;5.85;;
56122;SDS011;42426;46.104;19.656;2022-08-03T14:05:36;7.15;;;5.30;;
56122;SDS011;42426;46.104;19.656;2022-08-03T14:08:03;5.65;;;4.95;;
56122;SDS011;42426;46.104;19.656;2022-08-03T14:10:38;8.30;;;5.15;;
56122;SDS011;42426;46.104;19.656;2022-08-03T14:13:09;6.05;;;4.65;;
56122;SDS011;42426;46.104;19.656;2022-08-03T14:15:36;5.35;;;4.85;;
56122;SDS011;42426;46.104;19.656;2022-08-03T14:18:01;7.65;;;4.75;;
56122;SDS011;42426;46.104;19.656;2022-08-03T14:20:27;43.67;;;7.70;;
56122;SDS011;42426;46.104;19.656;2022-08-03T14:22:54;11.25;;;5.20;;
56122;SDS011;42426;46.104;19.656;2022-08-03T14:25:20;5.15;;;4.57;;
56122;SDS011;42426;46.104;19.656;2022-08-03T14:27:45;6.38;;;4.45;;
56122;SDS011;42426;46.104;19.656;2022-08-03T14:30:11;7.57;;;4.05;;
56122;SDS011;42426;46.104;19.656;2022-08-03T14:32:38;3.97;;;3.67;;
56122;SDS011;42426;46.104;19.656;2022-08-03T14:35:04;7.22;;;3.80;;
56122;SDS011;42426;46.104;19.656;2022-08-03T14:37:31;4.50;;;3.97;;
56122;SDS011;42426;46.104;19.656;2022-08-03T14:39:57;6.40;;;4.00;;
56122;SDS011;42426;46.104;19.656;2022-08-03T14:42:24;6.60;;;4.32;;
56122;SDS011;42426;46.104;19.656;2022-08-03T14:44:50;9.93;;;4.13;;
56122;SDS011;42426;46.104;19.656;2022-08-03T14:47:16;5.78;;;4.35;;
56122;SDS011;42426;46.104;19.656;2022-08-03T14:49:42;6.18;;;4.28;;
56122;SDS011;42426;46.104;19.656;2022-08-03T14:52:09;6.22;;;4.13;;
56122;SDS011;42426;46.104;19.656;2022-08-03T14:54:35;6.55;;;4.00;;
56122;SDS011;42426;46.104;19.656;2022-08-03T14:57:00;6.80;;;4.03;;
56122;SDS011;42426;46.104;19.656;2022-08-03T14:59:26;4.28;;;3.90;;
56122;SDS011;42426;46.104;19.656;2022-08-03T15:01:52;4.63;;;3.60;;
56122;SDS011;42426;46.104;19.656;2022-08-03T15:04:18;4.90;;;4.40;;
56122;SDS011;42426;46.104;19.656;2022-08-03T15:06:44;4.95;;;3.70;;
56122;SDS011;42426;46.104;19.656;2022-08-03T15:09:10;4.30;;;3.90;;
56122;SDS011;42426;46.104;19.656;2022-08-03T15:11:35;4.82;;;4.32;;
56122;SDS011;42426;46.104;19.656;2022-08-03T15:14:01;4.20;;;3.85;;
56122;SDS011;42426;46.104;19.656;2022-08-03T15:16:27;4.45;;;4.05;;
56122;SDS011;42426;46.104;19.656;2022-08-03T15:18:53;7.50;;;4.60;;
56122;SDS011;42426;46.104;19.656;2022-08-03T15:21:19;7.53;;;4.40;;
56122;SDS011;42426;46.104;19.656;2022-08-03T15:23:44;6.70;;;4.75;;
56122;SDS011;42426;46.104;19.656;2022-08-03T15:26:10;6.85;;;5.32;;
56122;SDS011;42426;46.104;19.656;2022-08-03T15:28:36;8.32;;;6.40;;